createdAt,value
2023-11-27T00:01:42.145Z,14.97
2023-11-27T00:04:08.661Z,14.67
2023-11-27T00:06:35.044Z,14.30
2023-11-27T00:09:01.345Z,13.70
2023-11-27T00:11:27.696Z,15.20
2023-11-27T00:13:54.030Z,12.93
2023-11-27T00:16:20.454Z,14.23
2023-11-27T00:18:48.110Z,15.43
2023-11-27T00:21:14.873Z,14.93
2023-11-27T00:23:41.390Z,12.47
2023-11-27T00:26:08.048Z,13.40
2023-11-27T00:28:34.861Z,15.37
2023-11-27T00:31:01.308Z,13.80
2023-11-27T00:33:27.674Z,13.40
2023-11-27T00:35:54.075Z,12.57
2023-11-27T00:38:20.615Z,15.10
2023-11-27T00:40:47.697Z,12.93
2023-11-27T00:43:14.847Z,14.50
2023-11-27T00:45:41.266Z,12.97
2023-11-27T00:48:07.959Z,10.53
2023-11-27T00:50:34.382Z,10.10
2023-11-27T00:53:00.649Z,14.87
2023-11-27T00:55:27.058Z,11.53
2023-11-27T00:57:53.327Z,10.77
2023-11-27T01:00:19.749Z,11.27
2023-11-27T01:02:46.694Z,11.10
2023-11-27T01:05:15.421Z,9.93
2023-11-27T01:07:42.883Z,10.00
2023-11-27T01:10:09.803Z,12.17
2023-11-27T01:12:39.564Z,10.10
2023-11-27T01:15:07.487Z,10.10
2023-11-27T01:17:33.782Z,10.77
2023-11-27T01:20:00.073Z,8.47
2023-11-27T01:22:26.352Z,10.80
2023-11-27T01:24:52.653Z,9.60
2023-11-27T01:27:19.394Z,11.50
2023-11-27T01:29:45.678Z,12.80
2023-11-27T01:32:11.986Z,12.63
2023-11-27T01:34:39.043Z,8.97
2023-11-27T01:37:05.513Z,10.53
2023-11-27T01:39:31.882Z,9.50
2023-11-27T01:41:58.165Z,10.30
2023-11-27T01:44:24.426Z,11.73
2023-11-27T01:46:50.862Z,10.47
2023-11-27T01:49:19.026Z,8.57
2023-11-27T01:51:46.185Z,11.87
2023-11-27T01:54:13.832Z,9.43
2023-11-27T01:56:42.332Z,9.07
2023-11-27T01:59:08.675Z,10.43
2023-11-27T02:01:35.123Z,10.60
2023-11-27T02:04:01.565Z,9.53
2023-11-27T02:06:27.910Z,10.33
2023-11-27T02:08:57.198Z,9.83
2023-11-27T02:11:23.848Z,10.80
2023-11-27T02:13:50.550Z,10.03
2023-11-27T02:16:17.958Z,10.43
2023-11-27T02:18:44.605Z,10.90
2023-11-27T02:21:11.491Z,11.47
2023-11-27T02:23:38.578Z,11.00
2023-11-27T02:26:05.480Z,9.47
2023-11-27T02:28:31.781Z,9.73
2023-11-27T02:30:58.239Z,10.87
2023-11-27T02:33:26.568Z,9.83
2023-11-27T02:35:53.178Z,11.17
2023-11-27T02:38:20.148Z,8.77
2023-11-27T02:40:46.680Z,12.27
2023-11-27T02:43:13.122Z,9.50
2023-11-27T02:45:39.446Z,8.97
2023-11-27T02:48:06.012Z,9.70
2023-11-27T02:50:32.476Z,10.00
2023-11-27T02:52:58.762Z,11.10
2023-11-27T02:55:25.418Z,10.40
2023-11-27T02:57:51.847Z,13.07
2023-11-27T03:00:19.842Z,12.83
2023-11-27T03:02:46.310Z,11.07
2023-11-27T03:05:12.924Z,11.27
2023-11-27T03:07:39.259Z,11.40
2023-11-27T03:10:06.016Z,11.00
2023-11-27T03:12:32.319Z,13.57
2023-11-27T03:14:59.571Z,12.37
2023-11-27T03:17:25.914Z,12.17
2023-11-27T03:19:54.972Z,11.30
2023-11-27T03:22:21.739Z,11.53
2023-11-27T03:24:48.179Z,10.70
2023-11-27T03:27:14.517Z,12.10
2023-11-27T03:29:40.826Z,10.33
2023-11-27T03:32:07.551Z,12.33
2023-11-27T03:34:33.859Z,12.03
2023-11-27T03:37:00.262Z,10.27
2023-11-27T03:39:27.020Z,13.33
2023-11-27T03:41:53.405Z,11.80
2023-11-27T03:44:19.961Z,10.20
2023-11-27T03:46:46.494Z,12.63
2023-11-27T03:49:13.536Z,11.73
2023-11-27T03:51:39.928Z,12.53
2023-11-27T03:54:06.804Z,11.83
2023-11-27T03:56:33.066Z,14.33
2023-11-27T03:58:59.333Z,12.40
2023-11-27T04:01:25.886Z,12.67
2023-11-27T04:03:52.308Z,12.20
2023-11-27T04:06:25.972Z,14.67
2023-11-27T04:08:52.572Z,12.73
2023-11-27T04:11:19.855Z,12.87
2023-11-27T04:13:47.016Z,19.17
2023-11-27T04:16:13.599Z,14.33
2023-11-27T04:18:39.954Z,15.97
2023-11-27T04:21:06.897Z,11.80
2023-11-27T04:23:33.261Z,16.37
2023-11-27T04:25:59.518Z,13.63
2023-11-27T04:28:26.254Z,12.30
2023-11-27T04:30:52.622Z,12.47
2023-11-27T04:33:20.078Z,14.03
2023-11-27T04:35:46.497Z,13.97
2023-11-27T04:38:12.851Z,13.87
2023-11-27T04:40:39.247Z,16.77
2023-11-27T04:43:05.545Z,15.27
2023-11-27T04:45:31.871Z,16.70
2023-11-27T04:47:58.212Z,16.60
2023-11-27T04:50:26.026Z,14.77
2023-11-27T04:52:52.394Z,13.73
2023-11-27T04:55:18.732Z,14.77
2023-11-27T04:57:45.039Z,13.37
2023-11-27T05:00:13.322Z,15.93
2023-11-27T05:02:39.816Z,15.13
2023-11-27T05:05:07.244Z,14.37
2023-11-27T05:07:33.592Z,13.40
2023-11-27T05:09:59.922Z,15.57
2023-11-27T05:12:32.717Z,12.33
2023-11-27T05:15:00.034Z,15.13
2023-11-27T05:17:26.456Z,13.53
2023-11-27T05:19:52.765Z,13.57
2023-11-27T05:22:19.750Z,16.27
2023-11-27T05:24:46.151Z,13.60
2023-11-27T05:27:12.454Z,12.73
2023-11-27T05:29:38.781Z,12.50
2023-11-27T05:32:09.173Z,14.70
2023-11-27T05:34:36.125Z,13.03
2023-11-27T05:37:02.416Z,13.33
2023-11-27T05:39:28.900Z,15.50
2023-11-27T05:41:55.182Z,14.83
2023-11-27T05:44:21.463Z,11.47
2023-11-27T05:46:47.882Z,11.33
2023-11-27T05:49:14.252Z,12.57
2023-11-27T05:51:41.099Z,9.87
2023-11-27T05:54:07.931Z,15.27
2023-11-27T05:56:34.219Z,11.87
2023-11-27T05:59:00.498Z,19.50
2023-11-27T06:01:26.870Z,11.60
2023-11-27T06:03:53.300Z,11.97
2023-11-27T06:06:22.972Z,13.23
2023-11-27T06:08:49.873Z,14.53
2023-11-27T06:11:16.648Z,14.40
2023-11-27T06:13:43.004Z,13.57
2023-11-27T06:16:09.968Z,16.23
2023-11-27T06:18:36.427Z,13.53
2023-11-27T06:21:04.577Z,13.17
2023-11-27T06:23:31.080Z,12.93
2023-11-27T06:25:57.936Z,14.77
2023-11-27T06:28:24.292Z,13.80
2023-11-27T06:30:51.762Z,15.57
2023-11-27T06:33:18.205Z,13.30
2023-11-27T06:35:45.814Z,12.70
2023-11-27T06:38:12.204Z,15.80
2023-11-27T06:40:45.634Z,13.27
2023-11-27T06:43:14.202Z,15.70
2023-11-27T06:45:40.859Z,13.77
2023-11-27T06:48:07.321Z,12.73
2023-11-27T06:50:33.625Z,12.40
2023-11-27T06:52:59.937Z,13.20
2023-11-27T06:55:26.352Z,13.53
2023-11-27T06:57:52.713Z,16.47
2023-11-27T07:00:19.159Z,13.67
2023-11-27T07:02:46.225Z,16.23
2023-11-27T07:05:12.599Z,11.50
2023-11-27T07:07:38.901Z,11.63
2023-11-27T07:10:05.721Z,13.13
2023-11-27T07:12:33.182Z,9.90
2023-11-27T07:14:59.795Z,13.30
2023-11-27T07:17:26.123Z,9.57
2023-11-27T07:19:52.768Z,10.43
2023-11-27T07:22:19.173Z,11.13
2023-11-27T07:24:45.556Z,12.53
2023-11-27T07:27:12.370Z,11.63
2023-11-27T07:29:39.300Z,12.57
2023-11-27T07:32:06.886Z,17.10
2023-11-27T07:34:33.986Z,11.50
2023-11-27T07:37:00.332Z,17.53
2023-11-27T07:39:30.008Z,13.67
2023-11-27T07:41:56.274Z,10.73
2023-11-27T07:44:26.178Z,13.70
2023-11-27T07:46:53.069Z,13.33
2023-11-27T07:49:20.481Z,9.80
2023-11-27T07:51:47.347Z,14.30
2023-11-27T07:54:13.743Z,12.53
2023-11-27T07:56:40.133Z,13.23
2023-11-27T07:59:06.550Z,14.80
2023-11-27T08:01:33.211Z,11.10
2023-11-27T08:03:59.673Z,11.00
2023-11-27T08:06:26.323Z,12.57
2023-11-27T08:08:55.140Z,15.57
2023-11-27T08:11:31.473Z,10.17
2023-11-27T08:13:57.779Z,12.13
2023-11-27T08:16:24.281Z,10.30
2023-11-27T08:18:50.634Z,11.07
2023-11-27T08:21:16.959Z,10.20
2023-11-27T08:23:43.332Z,8.97
2023-11-27T08:26:09.597Z,9.80
2023-11-27T08:28:36.134Z,13.93
2023-11-27T08:31:02.601Z,10.83
2023-11-27T08:33:28.953Z,10.30
2023-11-27T08:35:55.221Z,15.03
2023-11-27T08:38:31.904Z,10.70
2023-11-27T08:40:58.210Z,9.50
2023-11-27T08:43:24.484Z,14.63
2023-11-27T08:45:51.016Z,9.20
2023-11-27T08:48:17.404Z,13.00
2023-11-27T08:50:43.804Z,11.53
2023-11-27T08:53:10.341Z,9.63
2023-11-27T08:55:36.668Z,10.60
2023-11-27T08:58:05.261Z,17.93
2023-11-27T09:00:32.145Z,12.17
2023-11-27T09:03:00.828Z,13.80
2023-11-27T09:05:31.858Z,11.33
2023-11-27T09:08:01.228Z,11.47
2023-11-27T09:10:27.714Z,10.63
2023-11-27T09:12:54.021Z,13.10
2023-11-27T09:15:20.347Z,10.17
2023-11-27T09:17:47.392Z,12.87
2023-11-27T09:20:13.894Z,13.50
2023-11-27T09:22:40.878Z,12.60
2023-11-27T09:25:10.323Z,14.60
2023-11-27T09:27:36.953Z,13.17
2023-11-27T09:30:05.404Z,9.93
2023-11-27T09:32:31.821Z,10.17
2023-11-27T09:34:59.551Z,12.03
2023-11-27T09:37:26.665Z,10.70
2023-11-27T09:39:54.425Z,15.50
2023-11-27T09:42:23.697Z,12.93
2023-11-27T09:44:51.495Z,11.27
2023-11-27T09:47:18.819Z,13.47
2023-11-27T09:49:47.988Z,12.40
2023-11-27T09:52:19.304Z,20.37
2023-11-27T09:54:48.372Z,14.30
2023-11-27T09:57:15.073Z,11.93
2023-11-27T09:59:41.692Z,14.13
2023-11-27T10:02:11.689Z,12.23
2023-11-27T10:04:38.212Z,14.47
2023-11-27T10:07:08.003Z,18.63
2023-11-27T10:09:35.458Z,14.43
2023-11-27T10:12:01.840Z,15.57
2023-11-27T10:14:37.020Z,17.73
2023-11-27T10:17:06.432Z,20.53
2023-11-27T10:19:32.814Z,18.37
2023-11-27T10:22:00.540Z,19.03
2023-11-27T10:24:27.038Z,20.40
2023-11-27T10:26:53.302Z,20.90
2023-11-27T10:29:27.048Z,22.47
2023-11-27T10:31:59.684Z,23.30
2023-11-27T10:34:36.110Z,23.60
2023-11-27T10:37:02.987Z,19.63
2023-11-27T10:39:33.509Z,22.10
2023-11-27T10:42:00.324Z,22.80
2023-11-27T10:44:26.729Z,28.37
2023-11-27T10:46:54.548Z,26.90
2023-11-27T10:49:22.496Z,28.10
2023-11-27T10:51:49.648Z,24.90
2023-11-27T10:54:16.990Z,26.77
2023-11-27T10:56:45.704Z,24.43
2023-11-27T10:59:14.804Z,28.53
2023-11-27T11:01:42.704Z,25.13
2023-11-27T11:04:26.142Z,23.73
2023-11-27T11:06:54.128Z,26.87
2023-11-27T11:09:23.423Z,24.73
2023-11-27T11:11:56.815Z,22.63
2023-11-27T11:14:25.339Z,24.53
2023-11-27T11:17:09.253Z,22.17
2023-11-27T11:19:42.677Z,21.97
2023-11-27T11:22:20.262Z,25.83
2023-11-27T11:25:09.335Z,29.37
2023-11-27T11:27:40.418Z,21.73
2023-11-27T11:30:14.412Z,26.27
2023-11-27T11:32:41.466Z,26.47
2023-11-27T11:35:12.403Z,20.67
2023-11-27T11:37:48.843Z,22.33
2023-11-27T11:40:18.380Z,21.73
2023-11-27T11:42:49.199Z,21.40
2023-11-27T11:45:26.670Z,20.20
2023-11-27T11:48:00.021Z,26.33
2023-11-27T11:50:30.520Z,22.63
2023-11-27T11:53:05.039Z,23.33
2023-11-27T11:55:35.532Z,22.33
2023-11-27T11:58:06.710Z,20.50
2023-11-27T12:00:46.274Z,24.37
2023-11-27T12:03:17.522Z,23.23
2023-11-27T12:05:47.881Z,20.97
2023-11-27T12:08:14.343Z,26.30
2023-11-27T12:10:40.742Z,23.20
2023-11-27T12:13:10.615Z,22.90
2023-11-27T12:15:37.300Z,22.00
2023-11-27T12:18:09.846Z,21.90
2023-11-27T12:20:36.729Z,21.07
2023-11-27T12:23:03.086Z,20.90
2023-11-27T12:25:29.401Z,19.80
2023-11-27T12:27:55.731Z,17.93
2023-11-27T12:30:22.030Z,19.53
2023-11-27T12:32:50.144Z,17.23
2023-11-27T12:35:17.038Z,17.03
2023-11-27T12:37:46.832Z,17.10
2023-11-27T12:40:18.820Z,16.57
2023-11-27T12:42:46.407Z,21.10
2023-11-27T12:45:13.877Z,17.23
2023-11-27T12:47:40.311Z,16.87
2023-11-27T12:50:17.018Z,16.63
2023-11-27T12:52:46.464Z,18.17
2023-11-27T12:55:14.361Z,15.57
2023-11-27T12:57:41.190Z,19.27
2023-11-27T13:00:07.823Z,18.20
2023-11-27T13:02:44.149Z,17.37
2023-11-27T13:05:13.686Z,15.33
2023-11-27T13:07:43.091Z,17.33
2023-11-27T13:10:12.973Z,15.83
2023-11-27T13:12:49.780Z,18.70
2023-11-27T13:15:26.534Z,16.93
2023-11-27T13:18:01.099Z,15.77
2023-11-27T13:20:28.459Z,21.17
2023-11-27T13:22:54.928Z,19.97
2023-11-27T13:25:24.931Z,21.77
2023-11-27T13:27:51.314Z,20.43
2023-11-27T13:30:27.906Z,20.93
2023-11-27T13:32:55.035Z,15.40
2023-11-27T13:35:33.335Z,17.13
2023-11-27T13:38:04.138Z,19.27
2023-11-27T13:40:32.827Z,18.70
2023-11-27T13:42:59.975Z,18.43
2023-11-27T13:45:36.524Z,22.83
2023-11-27T13:48:03.776Z,18.97
2023-11-27T13:50:39.613Z,18.70
2023-11-27T13:53:09.839Z,18.03
2023-11-27T13:55:36.778Z,17.07
2023-11-27T13:58:07.744Z,25.03
2023-11-27T14:00:35.431Z,21.67
2023-11-27T14:03:04.035Z,26.27
2023-11-27T14:05:37.307Z,18.27
2023-11-27T14:08:04.516Z,17.43
2023-11-27T14:10:53.731Z,18.77
2023-11-27T14:13:20.084Z,15.87
2023-11-27T14:15:49.141Z,16.50
2023-11-27T14:18:22.147Z,18.57
2023-11-27T14:21:07.861Z,18.03
2023-11-27T14:23:40.091Z,16.97
2023-11-27T14:26:06.523Z,15.23
2023-11-27T14:28:48.611Z,17.23
2023-11-27T14:31:15.674Z,17.63
2023-11-27T14:33:42.008Z,16.77
2023-11-27T14:36:12.404Z,15.80
2023-11-27T14:38:39.225Z,14.70
2023-11-27T14:41:05.997Z,17.73
2023-11-27T14:43:33.616Z,13.20
2023-11-27T14:45:59.959Z,20.57
2023-11-27T14:48:32.924Z,17.63
2023-11-27T14:51:00.334Z,12.77
2023-11-27T14:53:27.675Z,14.00
2023-11-27T14:55:54.048Z,15.83
2023-11-27T14:58:20.418Z,13.90
2023-11-27T15:00:50.106Z,11.43
2023-11-27T15:03:20.718Z,11.73
2023-11-27T15:05:49.771Z,14.97
2023-11-27T15:08:18.663Z,11.47
2023-11-27T15:10:45.008Z,11.70
2023-11-27T15:13:12.713Z,9.00
2023-11-27T15:15:39.206Z,11.13
2023-11-27T15:18:07.386Z,11.03
2023-11-27T15:20:35.552Z,16.97
2023-11-27T15:23:02.714Z,11.90
2023-11-27T15:25:29.721Z,13.67
2023-11-27T15:27:57.237Z,10.37
2023-11-27T15:30:25.711Z,14.63
2023-11-27T15:32:52.119Z,11.50
2023-11-27T15:35:20.206Z,14.83
2023-11-27T15:37:47.748Z,13.07
2023-11-27T15:40:21.209Z,10.37
2023-11-27T15:42:47.815Z,15.07
2023-11-27T15:45:16.561Z,12.23
2023-11-27T15:47:43.214Z,11.83
2023-11-27T15:50:14.576Z,12.23
2023-11-27T15:52:41.709Z,12.23
2023-11-27T15:55:09.849Z,13.23
2023-11-27T15:57:36.222Z,13.13
2023-11-27T16:00:03.758Z,12.33
2023-11-27T16:02:31.629Z,15.50
2023-11-27T16:04:58.748Z,15.13
2023-11-27T16:07:25.889Z,12.03
2023-11-27T16:09:52.368Z,13.30
2023-11-27T16:12:18.711Z,13.40
2023-11-27T16:14:46.415Z,11.43
2023-11-27T16:17:14.839Z,11.50
2023-11-27T16:19:41.409Z,11.20
2023-11-27T16:22:07.946Z,14.07
2023-11-27T16:24:34.553Z,12.17
2023-11-27T16:27:00.857Z,13.60
2023-11-27T16:29:27.250Z,15.60
2023-11-27T16:31:53.659Z,17.93
2023-11-27T16:34:20.015Z,15.47
2023-11-27T16:36:47.687Z,11.77
2023-11-27T16:39:14.850Z,14.80
2023-11-27T16:41:41.892Z,11.03
2023-11-27T16:44:08.201Z,12.47
2023-11-27T16:46:34.967Z,11.70
2023-11-27T16:49:01.957Z,11.70
2023-11-27T16:51:32.751Z,11.10
2023-11-27T16:54:01.138Z,9.47
2023-11-27T16:56:28.044Z,10.57
2023-11-27T16:58:54.994Z,10.83
2023-11-27T17:01:21.677Z,9.23
2023-11-27T17:03:50.413Z,10.87
2023-11-27T17:06:17.581Z,10.83
2023-11-27T17:08:43.980Z,9.97
2023-11-27T17:11:10.289Z,10.47
2023-11-27T17:13:36.639Z,13.33
2023-11-27T17:16:03.172Z,13.23
2023-11-27T17:18:29.541Z,11.10
2023-11-27T17:20:56.286Z,11.30
2023-11-27T17:23:22.885Z,11.23
2023-11-27T17:25:49.274Z,11.60
2023-11-27T17:28:16.186Z,10.10
2023-11-27T17:30:46.597Z,11.73
2023-11-27T17:33:14.812Z,9.57
2023-11-27T17:35:41.566Z,11.23
2023-11-27T17:38:09.243Z,13.40
2023-11-27T17:40:36.930Z,12.37
2023-11-27T17:43:03.449Z,11.53
2023-11-27T17:45:29.861Z,11.83
2023-11-27T17:48:00.432Z,10.60
2023-11-27T17:50:27.208Z,11.43
2023-11-27T17:52:54.220Z,12.03
2023-11-27T17:55:22.231Z,15.93
2023-11-27T17:57:49.191Z,15.17
2023-11-27T18:00:17.497Z,18.73
2023-11-27T18:02:44.676Z,14.33
2023-11-27T18:05:13.333Z,13.97
2023-11-27T18:07:41.556Z,14.57
2023-11-27T18:10:08.533Z,13.10
2023-11-27T18:12:35.053Z,13.13
2023-11-27T18:15:01.362Z,12.50
2023-11-27T18:17:27.714Z,14.00
2023-11-27T18:19:54.005Z,13.23
2023-11-27T18:22:20.314Z,16.87
2023-11-27T18:24:46.637Z,13.40
2023-11-27T18:27:14.903Z,13.37
2023-11-27T18:29:41.300Z,14.13
2023-11-27T18:32:08.215Z,18.77
2023-11-27T18:34:34.515Z,13.97
2023-11-27T18:37:01.949Z,16.43
2023-11-27T18:39:31.300Z,15.63
2023-11-27T18:41:58.538Z,17.00
2023-11-27T18:44:26.815Z,15.07
2023-11-27T18:46:54.045Z,12.87
2023-11-27T18:49:24.873Z,15.93
2023-11-27T18:51:55.395Z,14.33
2023-11-27T18:54:21.723Z,14.00
2023-11-27T18:56:49.505Z,17.87
2023-11-27T18:59:15.954Z,14.50
2023-11-27T19:01:42.348Z,16.27
2023-11-27T19:04:08.836Z,15.87
2023-11-27T19:06:35.212Z,27.40
2023-11-27T19:09:01.478Z,15.80
2023-11-27T19:11:28.098Z,16.80
2023-11-27T19:13:54.591Z,24.57
2023-11-27T19:16:21.006Z,18.43
2023-11-27T19:18:51.848Z,15.00
2023-11-27T19:21:18.269Z,17.20
2023-11-27T19:23:44.558Z,14.90
2023-11-27T19:26:11.272Z,17.73
2023-11-27T19:28:37.619Z,16.33
2023-11-27T19:31:04.040Z,17.43
2023-11-27T19:33:33.335Z,18.63
2023-11-27T19:36:00.261Z,16.27
2023-11-27T19:38:27.505Z,20.83
2023-11-27T19:40:54.842Z,16.47
2023-11-27T19:43:21.398Z,17.83
2023-11-27T19:45:47.795Z,21.27
2023-11-27T19:48:14.185Z,15.63
2023-11-27T19:50:41.022Z,16.73
2023-11-27T19:53:08.285Z,14.43
2023-11-27T19:55:34.648Z,20.07
2023-11-27T19:58:00.956Z,16.40
2023-11-27T20:00:28.437Z,18.23
2023-11-27T20:02:56.198Z,20.80
2023-11-27T20:05:23.319Z,22.00
2023-11-27T20:07:49.747Z,18.57
2023-11-27T20:10:16.852Z,21.57
2023-11-27T20:12:43.706Z,18.37
2023-11-27T20:15:11.676Z,21.47
2023-11-27T20:17:39.225Z,19.03
2023-11-27T20:20:05.877Z,19.90
2023-11-27T20:22:32.214Z,23.67
2023-11-27T20:24:58.976Z,19.03
2023-11-27T20:27:29.607Z,19.77
2023-11-27T20:29:55.902Z,20.13
2023-11-27T20:32:22.263Z,23.37
2023-11-27T20:34:49.076Z,21.53
2023-11-27T20:37:15.516Z,20.93
2023-11-27T20:39:44.337Z,20.80
2023-11-27T20:42:10.733Z,21.47
2023-11-27T20:44:47.624Z,21.73
2023-11-27T20:47:18.412Z,21.00
2023-11-27T20:49:45.422Z,21.50
2023-11-27T20:52:12.391Z,21.53
2023-11-27T20:54:39.107Z,19.23
2023-11-27T20:57:06.280Z,24.27
2023-11-27T20:59:34.255Z,24.27
2023-11-27T21:02:03.475Z,21.37
2023-11-27T21:04:29.838Z,21.93
2023-11-27T21:06:56.410Z,20.93
2023-11-27T21:09:24.747Z,19.73
2023-11-27T21:11:52.169Z,20.30
2023-11-27T21:14:19.804Z,21.30
2023-11-27T21:16:46.662Z,20.00
2023-11-27T21:19:13.432Z,21.77
2023-11-27T21:21:42.575Z,18.00
2023-11-27T21:24:08.947Z,14.20
2023-11-27T21:26:37.289Z,16.00
2023-11-27T21:29:04.740Z,14.50
2023-11-27T21:31:31.933Z,17.30
2023-11-27T21:34:01.163Z,14.07
2023-11-27T21:36:29.960Z,15.03
2023-11-27T21:38:57.046Z,14.13
2023-11-27T21:41:24.929Z,14.53
2023-11-27T21:43:51.441Z,13.27
2023-11-27T21:46:17.817Z,13.60
2023-11-27T21:48:44.164Z,12.57
2023-11-27T21:51:16.950Z,15.77
2023-11-27T21:53:43.246Z,16.73
2023-11-27T21:56:09.732Z,18.07
2023-11-27T21:58:36.099Z,16.87
2023-11-27T22:01:11.848Z,15.83
2023-11-27T22:03:43.308Z,17.47
2023-11-27T22:06:09.882Z,14.03
2023-11-27T22:08:36.256Z,16.37
2023-11-27T22:11:02.571Z,17.93
2023-11-27T22:13:28.883Z,15.67
2023-11-27T22:15:55.233Z,19.43
2023-11-27T22:18:21.580Z,15.00
2023-11-27T22:20:47.856Z,19.27
2023-11-27T22:23:14.124Z,15.20
2023-11-27T22:25:40.472Z,16.97
2023-11-27T22:28:06.748Z,17.90
2023-11-27T22:30:33.057Z,17.80
2023-11-27T22:32:59.974Z,22.13
2023-11-27T22:35:26.367Z,18.60
2023-11-27T22:37:54.749Z,20.60
2023-11-27T22:40:22.483Z,18.60
2023-11-27T22:42:48.790Z,19.97
2023-11-27T22:45:15.106Z,20.17
2023-11-27T22:47:41.520Z,17.93
2023-11-27T22:50:09.088Z,19.60
2023-11-27T22:52:35.460Z,20.67
2023-11-27T22:55:01.781Z,21.40
2023-11-27T22:57:28.055Z,19.63
2023-11-27T22:59:54.366Z,25.20
2023-11-27T23:02:20.862Z,23.57
2023-11-27T23:04:47.883Z,22.60
2023-11-27T23:07:14.861Z,21.80
2023-11-27T23:09:41.222Z,21.40
2023-11-27T23:12:07.851Z,20.13
2023-11-27T23:14:34.370Z,21.20
2023-11-27T23:17:00.760Z,27.07
2023-11-27T23:19:27.150Z,26.57
2023-11-27T23:21:53.489Z,26.00
2023-11-27T23:24:26.507Z,27.03
2023-11-27T23:26:54.185Z,23.37
2023-11-27T23:29:22.179Z,26.37
2023-11-27T23:31:49.188Z,26.10
2023-11-27T23:34:15.699Z,29.60
2023-11-27T23:36:42.258Z,27.07
2023-11-27T23:39:09.630Z,24.83
2023-11-27T23:41:36.960Z,28.23
2023-11-27T23:44:03.410Z,26.07
2023-11-27T23:46:29.854Z,28.43
2023-11-27T23:48:58.429Z,27.00
2023-11-27T23:51:30.691Z,27.60
2023-11-27T23:53:56.993Z,29.57
2023-11-27T23:56:23.405Z,28.33
2023-11-27T23:58:49.869Z,25.77
